Time;durP1;ratioP1;P1;durP2;ratioP2;P2;SDS_P1;SDS_P2;PMS_P1;PMS_P2;Temp;Humidity;BMP_temperature;BMP_pressure;BME280_temperature;BME280_humidity;BME280_pressure;Samples;Min_cycle;Max_cycle;Signal;HPM_P1;HPM_P2
2023/12/09 00:01:43;;;;;;;34.55;14.65;;;8.40;99.90;;;;;;5028035;28;20049;-67
2023/12/09 00:04:10;;;;;;;30.42;14.77;;;8.10;99.90;;;;;;5027905;28;20474;-67
2023/12/09 00:06:36;;;;;;;41.15;16.58;;;8.20;99.90;;;;;;5027474;28;20365;-67
2023/12/09 00:09:03;;;;;;;30.52;15.07;;;8.40;99.90;;;;;;5027831;28;20064;-66
2023/12/09 00:11:30;;;;;;;33.72;15.52;;;8.30;99.90;;;;;;5044921;28;20364;-67
2023/12/09 00:14:01;;;;;;;34.10;15.48;;;8.40;99.90;;;;;;5028425;28;20056;-67
2023/12/09 00:16:28;;;;;;;34.65;15.40;;;8.40;99.90;;;;;;5046709;28;20100;-67
2023/12/09 00:18:54;;;;;;;34.08;14.82;;;8.40;99.90;;;;;;5032080;28;20047;-65
2023/12/09 00:21:20;;;;;;;36.55;15.65;;;8.50;99.90;;;;;;5031301;28;20080;-67
2023/12/09 00:23:46;;;;;;;27.05;14.50;;;8.30;99.90;;;;;;5032143;28;20450;-65
2023/12/09 00:26:13;;;;;;;35.15;15.90;;;8.10;99.90;;;;;;5031043;28;20041;-65
2023/12/09 00:28:39;;;;;;;36.03;15.80;;;8.10;99.90;;;;;;5031652;28;20081;-66
2023/12/09 00:31:06;;;;;;;29.55;14.45;;;8.30;99.90;;;;;;5031488;28;20053;-65
2023/12/09 00:33:32;;;;;;;27.73;14.82;;;8.30;99.90;;;;;;5031769;28;20053;-65
2023/12/09 00:35:59;;;;;;;31.08;14.68;;;8.50;99.90;;;;;;5031032;28;20466;-65
2023/12/09 00:38:25;;;;;;;38.22;15.43;;;8.10;99.90;;;;;;5031528;28;20049;-65
2023/12/09 00:40:51;;;;;;;33.47;15.95;;;8.10;99.90;;;;;;5035505;28;20057;-65
2023/12/09 00:43:17;;;;;;;29.80;14.23;;;8.40;99.90;;;;;;5031721;28;20053;-65
2023/12/09 00:45:44;;;;;;;31.05;13.57;;;8.10;99.90;;;;;;5030709;28;20041;-65
2023/12/09 00:48:10;;;;;;;34.38;14.15;;;8.10;99.90;;;;;;5017189;28;20061;-65
2023/12/09 00:50:36;;;;;;;34.13;14.65;;;8.10;99.90;;;;;;5034616;28;20075;-65
2023/12/09 00:53:03;;;;;;;26.65;13.50;;;8.10;99.90;;;;;;5034463;28;20049;-65
2023/12/09 00:55:29;;;;;;;37.00;14.93;;;8.20;99.90;;;;;;5034428;28;20462;-65
2023/12/09 00:57:55;;;;;;;30.42;14.98;;;8.10;99.90;;;;;;5050802;28;20063;-65
2023/12/09 01:00:24;;;;;;;36.33;16.10;;;8.10;99.90;;;;;;5034683;28;20473;-65
2023/12/09 01:02:50;;;;;;;32.65;14.70;;;8.40;99.90;;;;;;5034560;28;20049;-65
2023/12/09 01:05:16;;;;;;;29.02;12.88;;;8.10;99.90;;;;;;5050880;28;20051;-65
2023/12/09 01:07:43;;;;;;;30.00;14.65;;;8.30;99.90;;;;;;5017760;28;20425;-65
2023/12/09 01:10:10;;;;;;;29.42;15.15;;;8.40;99.90;;;;;;5067471;28;20056;-65
2023/12/09 01:12:36;;;;;;;35.20;14.77;;;8.40;99.90;;;;;;5036560;28;20059;-65
2023/12/09 01:15:03;;;;;;;33.13;14.23;;;8.30;99.90;;;;;;5067414;28;20354;-66
2023/12/09 01:17:29;;;;;;;26.52;12.68;;;8.40;99.90;;;;;;5033433;28;20075;-65
2023/12/09 01:19:55;;;;;;;29.77;13.48;;;8.00;99.90;;;;;;5033658;28;20045;-65
2023/12/09 01:22:22;;;;;;;30.13;14.65;;;8.20;99.90;;;;;;5066526;28;20103;-65
2023/12/09 01:24:48;;;;;;;25.52;12.73;;;8.30;99.90;;;;;;5033894;28;20068;-65
2023/12/09 01:27:15;;;;;;;28.25;13.40;;;8.20;99.90;;;;;;5065127;28;20057;-65
2023/12/09 01:29:41;;;;;;;27.52;12.57;;;8.00;99.90;;;;;;5051349;28;20049;-65
2023/12/09 01:32:08;;;;;;;32.60;12.95;;;7.90;99.90;;;;;;5034047;28;20449;-65
2023/12/09 01:34:36;;;;;;;35.03;13.20;;;8.00;99.90;;;;;;5067596;28;20064;-65
2023/12/09 01:37:02;;;;;;;31.67;13.13;;;8.10;99.90;;;;;;5032485;28;20069;-65
2023/12/09 01:39:29;;;;;;;25.30;12.82;;;8.20;99.90;;;;;;5033481;28;20057;-65
2023/12/09 01:41:56;;;;;;;27.25;12.85;;;8.10;99.90;;;;;;5066444;28;20049;-65
2023/12/09 01:44:22;;;;;;;29.65;12.82;;;8.20;99.90;;;;;;5033540;28;20049;-65
2023/12/09 01:46:49;;;;;;;32.78;12.75;;;8.10;99.90;;;;;;5065870;28;20132;-65
2023/12/09 01:49:15;;;;;;;28.85;13.18;;;7.90;99.90;;;;;;5033553;28;20069;-65
2023/12/09 01:51:43;;;;;;;32.45;13.07;;;8.20;99.90;;;;;;5049641;28;20053;-65
2023/12/09 01:54:10;;;;;;;27.90;13.63;;;8.10;99.90;;;;;;5033047;28;20053;-65
2023/12/09 01:56:37;;;;;;;27.35;12.90;;;8.00;99.90;;;;;;5032492;28;20155;-65
2023/12/09 01:59:04;;;;;;;31.67;13.38;;;7.90;99.90;;;;;;5033117;28;20457;-65
2023/12/09 02:01:33;;;;;;;28.08;12.32;;;8.10;99.90;;;;;;5016367;28;20501;-65
2023/12/09 02:03:59;;;;;;;26.77;12.10;;;8.10;99.90;;;;;;5033251;28;20045;-65
2023/12/09 02:06:26;;;;;;;27.42;12.32;;;8.00;99.90;;;;;;5048710;28;20643;-65
2023/12/09 02:08:53;;;;;;;28.27;12.40;;;7.90;99.90;;;;;;5033338;28;20424;-65
2023/12/09 02:11:38;;;;;;;27.05;12.27;;;7.90;99.90;;;;;;5032776;28;20496;-65
2023/12/09 02:14:18;;;;;;;31.05;13.60;;;7.90;99.90;;;;;;5033244;28;20049;-65
2023/12/09 02:16:48;;;;;;;28.08;11.88;;;8.10;99.90;;;;;;5057858;28;20290;-65
2023/12/09 02:19:16;;;;;;;34.45;12.80;;;8.00;99.90;;;;;;5033151;28;20445;-65
2023/12/09 02:21:59;;;;;;;27.50;14.02;;;7.90;99.90;;;;;;5066290;28;20053;-65
2023/12/09 02:24:26;;;;;;;31.88;12.77;;;7.80;99.90;;;;;;5032835;28;20049;-65
2023/12/09 02:26:55;;;;;;;25.63;11.63;;;7.80;99.90;;;;;;5031826;28;20556;-65
2023/12/09 02:29:24;;;;;;;27.55;11.77;;;8.00;99.90;;;;;;5032743;28;20059;-65
2023/12/09 02:31:59;;;;;;;33.83;12.70;;;8.10;99.90;;;;;;5065515;28;20057;-65
2023/12/09 02:34:27;;;;;;;38.55;13.50;;;8.10;99.90;;;;;;5032433;28;20111;-65
2023/12/09 02:36:56;;;;;;;28.42;13.80;;;8.00;99.90;;;;;;5064948;28;20378;-65
2023/12/09 02:39:22;;;;;;;27.05;12.20;;;8.00;99.90;;;;;;5031994;28;20041;-65
2023/12/09 02:41:49;;;;;;;30.17;12.93;;;7.70;99.90;;;;;;5050068;28;20469;-65
2023/12/09 02:44:16;;;;;;;27.15;12.10;;;8.00;99.90;;;;;;5032820;28;20071;-66
2023/12/09 02:46:43;;;;;;;25.10;11.82;;;8.00;99.90;;;;;;5065438;28;20136;-65
2023/12/09 02:49:10;;;;;;;21.75;11.55;;;7.90;99.90;;;;;;5032266;28;20064;-65
2023/12/09 02:51:37;;;;;;;31.77;11.63;;;7.70;99.90;;;;;;5031751;28;20053;-65
2023/12/09 02:54:03;;;;;;;28.10;13.07;;;7.60;99.90;;;;;;5032122;28;20444;-65
2023/12/09 02:56:30;;;;;;;30.55;13.55;;;7.60;99.90;;;;;;5064333;28;20076;-65
2023/12/09 02:58:56;;;;;;;30.33;12.57;;;7.80;99.90;;;;;;5031599;28;20385;-65
2023/12/09 03:01:22;;;;;;;21.25;10.68;;;7.70;99.90;;;;;;5049239;28;20052;-65
2023/12/09 03:03:48;;;;;;;28.35;12.23;;;7.90;99.90;;;;;;5031916;28;20056;-65
2023/12/09 03:06:15;;;;;;;27.30;12.95;;;7.80;99.90;;;;;;5064199;28;20494;-65
2023/12/09 03:08:41;;;;;;;22.38;11.38;;;7.70;99.90;;;;;;5048658;28;20057;-65
2023/12/09 03:11:07;;;;;;;28.27;13.02;;;7.80;99.90;;;;;;5065125;28;20053;-65
2023/12/09 03:13:34;;;;;;;28.70;12.55;;;7.90;99.90;;;;;;5031912;28;20060;-65
2023/12/09 03:16:00;;;;;;;27.25;12.32;;;7.90;99.90;;;;;;5064657;28;20420;-65
2023/12/09 03:18:26;;;;;;;25.58;10.75;;;7.90;99.90;;;;;;5031978;28;20041;-65
2023/12/09 03:20:52;;;;;;;26.45;11.52;;;7.90;99.90;;;;;;5065144;28;20477;-65
2023/12/09 03:23:19;;;;;;;28.08;11.88;;;7.90;99.90;;;;;;5064917;28;20056;-65
2023/12/09 03:25:45;;;;;;;26.50;10.90;;;8.00;99.90;;;;;;5031481;28;20067;-65
2023/12/09 03:28:12;;;;;;;26.25;11.43;;;7.60;99.90;;;;;;5064803;28;20037;-65
2023/12/09 03:30:38;;;;;;;23.02;10.35;;;7.90;99.90;;;;;;5031847;28;20049;-65
2023/12/09 03:33:04;;;;;;;24.90;11.02;;;7.90;99.90;;;;;;5064824;28;20131;-65
2023/12/09 03:35:31;;;;;;;23.75;10.65;;;7.60;99.90;;;;;;5064223;28;20059;-65
2023/12/09 03:37:57;;;;;;;24.40;11.05;;;8.00;99.90;;;;;;5031350;28;20045;-65
2023/12/09 03:40:23;;;;;;;22.85;10.57;;;8.00;99.90;;;;;;5031279;28;20056;-65
2023/12/09 03:42:50;;;;;;;25.63;11.25;;;8.00;99.90;;;;;;5064894;28;20468;-65
2023/12/09 03:45:16;;;;;;;26.63;11.35;;;8.00;99.90;;;;;;5031257;28;20049;-65
2023/12/09 03:47:44;;;;;;;27.33;11.63;;;7.90;99.90;;;;;;5064645;28;20440;-65
2023/12/09 03:50:10;;;;;;;26.48;11.00;;;7.70;99.90;;;;;;5028529;28;20076;-65
2023/12/09 03:52:36;;;;;;;24.05;10.27;;;7.80;99.90;;;;;;5065129;28;20354;-65
2023/12/09 03:55:03;;;;;;;24.45;11.07;;;7.70;99.90;;;;;;5032534;28;20068;-65
2023/12/09 03:57:30;;;;;;;23.05;10.13;;;7.70;99.90;;;;;;5031360;28;20045;-65
2023/12/09 03:59:56;;;;;;;26.15;10.55;;;7.80;99.90;;;;;;5032116;28;20454;-66
2023/12/09 04:02:22;;;;;;;25.88;10.05;;;7.60;99.90;;;;;;5033086;28;20536;-65
2023/12/09 04:04:49;;;;;;;27.00;9.90;;;7.90;99.90;;;;;;5032169;28;20049;-66
2023/12/09 04:07:15;;;;;;;20.98;9.70;;;7.90;99.90;;;;;;5031228;28;20056;-65
2023/12/09 04:09:41;;;;;;;26.02;10.10;;;7.90;99.90;;;;;;5065055;28;20068;-65
2023/12/09 04:12:08;;;;;;;25.52;9.68;;;7.90;99.90;;;;;;5031870;28;20346;-65
2023/12/09 04:14:34;;;;;;;27.58;9.63;;;7.80;99.90;;;;;;5032183;28;20442;-65
2023/12/09 04:17:00;;;;;;;20.38;9.90;;;7.60;99.90;;;;;;5047499;28;20041;-65
2023/12/09 04:19:27;;;;;;;25.30;10.15;;;7.70;99.90;;;;;;5064862;28;20057;-65
2023/12/09 04:21:53;;;;;;;24.25;10.05;;;7.90;99.90;;;;;;5064575;28;20041;-65
2023/12/09 04:24:19;;;;;;;20.38;9.25;;;7.80;99.90;;;;;;5031762;28;20480;-65
2023/12/09 04:26:46;;;;;;;22.35;9.82;;;7.90;99.90;;;;;;5064239;28;20068;-65
2023/12/09 04:29:12;;;;;;;19.45;9.02;;;7.70;99.90;;;;;;5064773;28;20062;-65
2023/12/09 04:31:39;;;;;;;25.10;10.45;;;7.60;99.90;;;;;;5064947;28;20053;-66
2023/12/09 04:34:05;;;;;;;21.55;9.30;;;7.80;99.90;;;;;;5031612;28;20053;-66
2023/12/09 04:36:32;;;;;;;23.30;9.45;;;7.90;99.90;;;;;;5063720;28;20458;-65
2023/12/09 04:38:58;;;;;;;26.35;10.07;;;7.60;99.90;;;;;;5064359;28;20060;-65
2023/12/09 04:41:24;;;;;;;27.33;10.35;;;7.80;99.90;;;;;;5064522;28;20053;-65
2023/12/09 04:43:51;;;;;;;22.65;9.77;;;7.80;99.90;;;;;;5031507;28;20106;-65
2023/12/09 04:46:17;;;;;;;22.50;9.55;;;7.90;99.90;;;;;;5031668;28;20462;-66
2023/12/09 04:48:43;;;;;;;17.05;9.27;;;7.70;99.90;;;;;;5064477;28;20057;-65
2023/12/09 04:51:10;;;;;;;24.42;9.68;;;7.50;99.90;;;;;;5031021;28;20438;-65
2023/12/09 04:53:36;;;;;;;24.38;9.02;;;7.60;99.90;;;;;;5031096;28;20258;-65
2023/12/09 04:56:03;;;;;;;23.20;9.63;;;7.70;99.90;;;;;;5063555;28;20140;-65
2023/12/09 04:58:29;;;;;;;21.42;8.95;;;7.60;99.90;;;;;;5064296;28;20063;-65
2023/12/09 05:00:56;;;;;;;23.02;8.98;;;7.50;99.90;;;;;;5064073;28;20053;-65
2023/12/09 05:03:22;;;;;;;20.05;9.65;;;7.40;99.90;;;;;;5064352;28;20049;-65
2023/12/09 05:05:49;;;;;;;27.17;10.57;;;7.40;99.90;;;;;;5064031;28;20033;-65
2023/12/09 05:08:15;;;;;;;21.02;8.98;;;7.70;99.90;;;;;;5031908;28;20462;-65
2023/12/09 05:10:41;;;;;;;17.25;9.70;;;7.50;99.90;;;;;;5064554;28;20355;-65
2023/12/09 05:13:07;;;;;;;26.58;11.55;;;7.60;99.90;;;;;;5030959;28;20489;-66
2023/12/09 05:15:34;;;;;;;20.67;9.65;;;7.40;99.90;;;;;;5063752;28;20468;-65
2023/12/09 05:18:00;;;;;;;24.27;10.20;;;7.50;99.90;;;;;;5064276;28;20145;-65
2023/12/09 05:20:26;;;;;;;25.27;10.15;;;7.70;99.90;;;;;;5030976;28;20056;-65
2023/12/09 05:22:53;;;;;;;18.98;9.85;;;7.60;99.90;;;;;;5031714;28;20107;-65
2023/12/09 05:25:19;;;;;;;18.58;8.80;;;7.60;99.90;;;;;;5030319;28;20056;-66
2023/12/09 05:27:45;;;;;;;23.27;10.23;;;7.40;99.90;;;;;;5030679;28;20054;-65
2023/12/09 05:30:12;;;;;;;20.95;10.07;;;7.60;99.90;;;;;;5064260;28;20343;-65
2023/12/09 05:32:38;;;;;;;15.43;8.70;;;7.40;99.90;;;;;;5030349;28;20063;-65
2023/12/09 05:35:05;;;;;;;21.40;9.00;;;7.30;99.90;;;;;;5029984;28;20072;-66
2023/12/09 05:37:31;;;;;;;16.15;8.85;;;7.30;99.90;;;;;;5030250;28;20136;-65
2023/12/09 05:39:58;;;;;;;22.00;9.15;;;7.20;99.90;;;;;;5030341;28;20053;-65
2023/12/09 05:42:24;;;;;;;18.40;9.45;;;7.40;99.90;;;;;;5063780;28;20045;-65
2023/12/09 05:44:50;;;;;;;19.17;9.40;;;7.20;99.90;;;;;;5063617;28;20045;-65
2023/12/09 05:47:17;;;;;;;24.85;9.38;;;7.30;99.90;;;;;;5029838;28;20076;-65
2023/12/09 05:49:43;;;;;;;22.15;8.73;;;7.20;99.90;;;;;;5030211;28;20053;-66
2023/12/09 05:52:09;;;;;;;22.95;9.23;;;7.40;99.90;;;;;;5063325;28;20072;-65
2023/12/09 05:54:39;;;;;;;26.70;9.70;;;7.20;99.90;;;;;;5063501;28;20076;-65
2023/12/09 05:57:05;;;;;;;19.48;8.27;;;7.10;99.90;;;;;;5062633;28;20045;-65
2023/12/09 05:59:31;;;;;;;25.08;9.90;;;7.00;99.90;;;;;;5031278;28;20183;-65
2023/12/09 06:01:58;;;;;;;31.45;9.20;;;7.30;99.90;;;;;;5063062;28;20137;-66
2023/12/09 06:04:24;;;;;;;19.80;8.90;;;7.30;99.90;;;;;;5029835;28;20057;-65
2023/12/09 06:06:51;;;;;;;22.08;8.93;;;7.30;99.90;;;;;;5062271;28;20045;-66
2023/12/09 06:09:17;;;;;;;22.05;8.73;;;7.30;99.90;;;;;;5030280;28;20459;-65
2023/12/09 06:11:43;;;;;;;19.85;8.93;;;7.20;99.90;;;;;;5063267;28;20152;-65
2023/12/09 06:14:10;;;;;;;22.00;8.95;;;7.40;99.90;;;;;;5029051;28;20053;-65
2023/12/09 06:16:36;;;;;;;21.17;8.75;;;7.10;99.90;;;;;;5061841;28;20470;-65
2023/12/09 06:19:03;;;;;;;25.35;8.82;;;7.10;99.90;;;;;;5029188;28;20045;-65
2023/12/09 06:21:29;;;;;;;20.08;8.50;;;7.10;99.90;;;;;;5029297;28;20091;-65
2023/12/09 06:23:56;;;;;;;21.15;8.85;;;7.20;99.90;;;;;;5029143;28;20068;-66
2023/12/09 06:26:22;;;;;;;17.73;7.72;;;7.40;99.90;;;;;;5028869;28;20063;-65
2023/12/09 06:28:48;;;;;;;19.17;7.90;;;7.50;99.90;;;;;;5062781;28;20053;-65
2023/12/09 06:31:15;;;;;;;18.23;8.00;;;7.40;99.90;;;;;;5029305;28;20543;-65
2023/12/09 06:33:41;;;;;;;19.45;7.50;;;7.20;99.90;;;;;;5062608;28;20060;-66
2023/12/09 06:36:08;;;;;;;21.52;8.77;;;7.40;99.90;;;;;;5061978;28;20045;-65
2023/12/09 06:38:39;;;;;;;20.35;7.07;;;7.30;99.90;;;;;;5062604;28;20065;-66
2023/12/09 06:41:06;;;;;;;22.80;8.18;;;7.40;99.90;;;;;;5045625;28;20053;-65
2023/12/09 06:43:32;;;;;;;21.42;7.95;;;7.40;99.90;;;;;;5062384;28;20045;-65
2023/12/09 06:46:00;;;;;;;18.70;7.25;;;7.30;99.90;;;;;;5028260;28;20037;-65
2023/12/09 06:48:27;;;;;;;20.40;7.35;;;7.30;99.90;;;;;;5062091;28;20409;-65
2023/12/09 06:50:53;;;;;;;18.73;7.32;;;7.40;99.90;;;;;;5062292;28;20045;-65
2023/12/09 06:53:20;;;;;;;17.63;7.38;;;7.40;99.90;;;;;;5062426;28;20167;-65
2023/12/09 06:55:46;;;;;;;15.98;6.55;;;7.20;99.90;;;;;;5060693;28;20053;-65
2023/12/09 06:58:13;;;;;;;17.27;8.27;;;7.20;99.90;;;;;;5028868;28;20381;-66
2023/12/09 07:00:39;;;;;;;17.65;7.20;;;7.20;99.90;;;;;;5027568;28;20038;-65
2023/12/09 07:03:06;;;;;;;22.10;8.20;;;7.20;99.90;;;;;;5045471;28;20442;-65
2023/12/09 07:05:32;;;;;;;25.83;8.80;;;7.50;99.90;;;;;;5061506;28;20430;-65
2023/12/09 07:08:01;;;;;;;21.55;7.55;;;7.40;99.90;;;;;;5061870;28;20372;-66
2023/12/09 07:10:27;;;;;;;22.88;8.15;;;7.50;99.90;;;;;;5061671;28;20045;-65
2023/12/09 07:12:53;;;;;;;19.95;7.53;;;7.20;99.90;;;;;;5029248;28;20053;-66
2023/12/09 07:15:20;;;;;;;24.95;8.80;;;7.40;99.90;;;;;;5028026;28;20045;-66
2023/12/09 07:17:47;;;;;;;23.77;8.48;;;7.50;99.90;;;;;;5028289;28;20053;-66
2023/12/09 07:20:13;;;;;;;19.30;8.30;;;7.30;99.90;;;;;;5028294;28;20045;-66
2023/12/09 07:22:40;;;;;;;18.00;7.25;;;7.40;99.90;;;;;;5028583;28;20478;-66
2023/12/09 07:25:06;;;;;;;22.23;8.30;;;7.50;99.90;;;;;;5028117;28;20049;-66
2023/12/09 07:27:33;;;;;;;21.27;7.80;;;7.20;99.90;;;;;;5028252;28;20132;-66
2023/12/09 07:30:00;;;;;;;17.25;8.77;;;7.20;99.90;;;;;;5044748;28;20418;-66
2023/12/09 07:32:27;;;;;;;22.15;8.23;;;7.40;99.90;;;;;;5028441;28;20446;-66
2023/12/09 07:34:53;;;;;;;18.77;7.50;;;7.20;99.90;;;;;;5029350;28;20132;-65
2023/12/09 07:37:20;;;;;;;21.42;7.95;;;7.30;99.90;;;;;;5044533;28;20057;-66
2023/12/09 07:39:46;;;;;;;16.13;7.03;;;7.50;99.90;;;;;;5028310;28;20049;-66
2023/12/09 07:42:13;;;;;;;28.17;7.22;;;7.30;99.90;;;;;;5028546;28;20052;-65
2023/12/09 07:44:39;;;;;;;15.60;7.30;;;7.30;99.90;;;;;;5028470;28;20348;-66
2023/12/09 07:47:05;;;;;;;19.58;6.90;;;7.20;99.90;;;;;;5027682;28;20496;-66
2023/12/09 07:49:32;;;;;;;19.58;7.13;;;7.30;99.90;;;;;;5043885;28;20064;-65
2023/12/09 07:51:58;;;;;;;18.38;6.65;;;7.10;99.90;;;;;;5028546;28;20045;-66
2023/12/09 07:54:24;;;;;;;18.73;6.05;;;7.20;99.90;;;;;;5027465;28;20057;-67
2023/12/09 07:56:51;;;;;;;16.13;6.57;;;7.40;99.90;;;;;;5034125;28;20389;-66
2023/12/09 07:59:17;;;;;;;15.40;6.93;;;7.20;99.90;;;;;;5028180;28;20065;-66
2023/12/09 08:01:44;;;;;;;17.75;6.50;;;7.10;99.90;;;;;;5036907;28;20050;-66
2023/12/09 08:04:11;;;;;;;17.88;5.60;;;7.40;99.90;;;;;;5011878;28;20064;-66
2023/12/09 08:06:37;;;;;;;13.88;5.35;;;7.40;99.90;;;;;;5031545;28;20206;-66
2023/12/09 08:09:04;;;;;;;17.35;6.72;;;7.00;99.90;;;;;;5036781;28;20040;-66
2023/12/09 08:11:31;;;;;;;18.95;5.63;;;7.40;99.90;;;;;;5046908;28;20049;-66
2023/12/09 08:13:58;;;;;;;20.17;6.60;;;7.40;99.90;;;;;;5026697;28;20041;-66
2023/12/09 08:16:24;;;;;;;14.40;5.97;;;7.30;99.90;;;;;;5026104;28;20377;-66
2023/12/09 08:18:50;;;;;;;16.80;6.32;;;7.10;99.90;;;;;;5043809;28;20386;-65
2023/12/09 08:21:17;;;;;;;18.98;5.57;;;7.10;99.90;;;;;;5058326;28;20049;-65
2023/12/09 08:23:43;;;;;;;12.80;6.50;;;7.30;99.90;;;;;;5026826;28;20060;-66
2023/12/09 08:26:16;;;;;;;17.63;6.15;;;7.20;99.90;;;;;;5026599;28;20053;-65
2023/12/09 08:28:42;;;;;;;20.40;6.03;;;7.10;99.90;;;;;;5025090;28;20057;-66
2023/12/09 08:31:09;;;;;;;15.80;6.07;;;7.10;99.90;;;;;;5043757;28;20049;-66
2023/12/09 08:33:35;;;;;;;17.40;6.05;;;7.00;99.90;;;;;;5027677;28;20064;-66
2023/12/09 08:36:01;;;;;;;18.95;6.32;;;6.90;99.90;;;;;;5028099;28;20132;-66
2023/12/09 08:38:28;;;;;;;13.93;5.47;;;7.00;99.90;;;;;;5048860;28;20053;-66
2023/12/09 08:40:54;;;;;;;14.13;6.32;;;7.00;99.90;;;;;;5032842;28;20050;-66
2023/12/09 08:43:20;;;;;;;17.67;5.68;;;7.30;99.90;;;;;;5049302;28;20122;-65
2023/12/09 08:45:47;;;;;;;18.48;5.82;;;7.00;99.90;;;;;;5032803;28;20049;-66
2023/12/09 08:48:13;;;;;;;15.52;5.28;;;7.20;99.90;;;;;;5052670;28;20052;-66
2023/12/09 08:50:39;;;;;;;13.45;5.35;;;7.30;99.90;;;;;;5036360;28;20059;-66
2023/12/09 08:53:05;;;;;;;14.25;5.63;;;7.30;99.90;;;;;;5036405;28;20543;-66
2023/12/09 08:55:32;;;;;;;12.90;4.43;;;7.10;99.90;;;;;;5052474;28;20056;-65
2023/12/09 08:57:58;;;;;;;13.95;5.10;;;7.40;99.90;;;;;;5035764;28;20045;-65
2023/12/09 09:00:26;;;;;;;14.10;5.13;;;7.10;99.90;;;;;;5069436;28;20064;-65
2023/12/09 09:02:55;;;;;;;18.20;5.13;;;7.30;99.90;;;;;;5036276;28;20377;-66
2023/12/09 09:05:24;;;;;;;14.30;4.75;;;7.40;99.90;;;;;;5053434;28;20056;-65
2023/12/09 09:07:51;;;;;;;14.13;4.45;;;7.50;99.90;;;;;;5035757;28;20045;-65
2023/12/09 09:10:18;;;;;;;16.48;5.00;;;7.50;99.90;;;;;;5036036;28;20064;-65
2023/12/09 09:12:46;;;;;;;15.55;5.03;;;7.30;99.90;;;;;;5036308;28;20487;-66
2023/12/09 09:15:14;;;;;;;14.77;5.65;;;7.40;99.90;;;;;;5053500;28;20061;-65
2023/12/09 09:17:42;;;;;;;11.57;4.63;;;7.60;99.90;;;;;;5035586;28;20460;-65
2023/12/09 09:20:09;;;;;;;14.25;5.28;;;7.60;99.90;;;;;;5035484;28;20049;-66
2023/12/09 09:22:35;;;;;;;12.77;4.40;;;7.60;99.90;;;;;;5035542;28;20052;-64
2023/12/09 09:25:02;;;;;;;11.75;4.10;;;7.50;99.90;;;;;;5034783;28;20472;-65
2023/12/09 09:27:29;;;;;;;13.13;5.03;;;7.50;99.90;;;;;;5052717;28;20081;-65
2023/12/09 09:29:55;;;;;;;12.15;3.92;;;7.50;99.90;;;;;;5051800;28;20053;-65
2023/12/09 09:32:21;;;;;;;16.30;4.47;;;7.70;99.90;;;;;;5034778;28;20053;-65
2023/12/09 09:34:48;;;;;;;15.10;4.40;;;7.70;99.90;;;;;;5050107;28;20136;-65
2023/12/09 09:37:14;;;;;;;13.48;4.60;;;7.70;99.90;;;;;;5035416;28;20057;-65
2023/12/09 09:39:41;;;;;;;13.15;5.10;;;7.60;99.90;;;;;;5035101;28;20095;-66
2023/12/09 09:42:40;;;;;;;18.73;4.82;;;7.60;99.90;;;;;;5035185;28;20059;-64
2023/12/09 09:45:10;;;;;;;11.95;4.38;;;7.70;99.90;;;;;;5031492;28;20133;-65
2023/12/09 09:47:36;;;;;;;14.40;4.43;;;7.70;99.90;;;;;;5029903;28;20065;-65
2023/12/09 09:50:10;;;;;;;12.00;4.30;;;7.80;99.90;;;;;;5052404;28;20072;-65
2023/12/09 09:52:40;;;;;;;12.18;3.85;;;7.90;99.90;;;;;;5034918;28;20056;-65
2023/12/09 09:55:08;;;;;;;14.23;4.40;;;7.80;99.90;;;;;;5034652;28;20056;-66
2023/12/09 09:57:34;;;;;;;11.38;3.95;;;7.80;99.90;;;;;;5034751;28;20132;-65
2023/12/09 10:00:01;;;;;;;12.68;3.83;;;7.80;99.90;;;;;;5035401;28;20045;-66
2023/12/09 10:02:27;;;;;;;10.95;4.05;;;8.10;99.90;;;;;;5035276;28;20087;-65
2023/12/09 10:04:55;;;;;;;13.38;4.13;;;7.80;99.90;;;;;;5018391;28;20063;-65
2023/12/09 10:07:22;;;;;;;13.95;4.25;;;8.10;99.90;;;;;;5034543;28;20473;-66
2023/12/09 10:09:49;;;;;;;13.05;4.05;;;8.10;99.90;;;;;;5034968;28;20057;-66
2023/12/09 10:12:16;;;;;;;11.85;4.50;;;8.10;99.90;;;;;;5037746;28;20492;-65
2023/12/09 10:14:43;;;;;;;10.68;4.75;;;8.00;99.90;;;;;;5051034;28;20060;-65
2023/12/09 10:17:09;;;;;;;13.18;3.83;;;8.00;99.90;;;;;;5034260;28;20045;-66
2023/12/09 10:19:36;;;;;;;12.50;4.32;;;8.00;99.90;;;;;;5034641;28;20146;-65
2023/12/09 10:22:02;;;;;;;11.93;4.38;;;7.90;99.90;;;;;;5033693;28;20450;-65
2023/12/09 10:24:29;;;;;;;11.43;4.38;;;7.90;99.90;;;;;;5033983;28;20155;-65
2023/12/09 10:26:55;;;;;;;10.32;3.70;;;7.80;99.90;;;;;;5033932;28;20052;-65
2023/12/09 10:29:22;;;;;;;11.02;4.43;;;7.80;99.90;;;;;;5033992;28;20064;-66
2023/12/09 10:31:48;;;;;;;10.38;3.50;;;7.90;99.90;;;;;;5066627;28;20143;-65
2023/12/09 10:34:14;;;;;;;10.73;4.15;;;7.70;99.90;;;;;;5034796;28;20388;-66
2023/12/09 10:36:41;;;;;;;10.85;3.35;;;8.00;99.90;;;;;;5049417;28;20067;-66
2023/12/09 10:39:10;;;;;;;10.38;3.67;;;7.90;99.90;;;;;;5033486;28;20067;-65
2023/12/09 10:41:37;;;;;;;8.50;3.65;;;7.90;99.90;;;;;;5034279;28;20240;-66
2023/12/09 10:44:04;;;;;;;9.55;3.10;;;7.90;99.90;;;;;;5033534;28;20049;-66
2023/12/09 10:46:30;;;;;;;12.23;3.85;;;8.00;99.90;;;;;;5035675;28;20048;-66
2023/12/09 10:48:56;;;;;;;7.05;3.03;;;7.80;99.90;;;;;;5067242;28;20068;-65
2023/12/09 10:51:23;;;;;;;9.93;2.97;;;7.90;99.90;;;;;;5050431;28;20059;-66
2023/12/09 10:53:49;;;;;;;6.45;3.00;;;7.80;99.90;;;;;;5033741;28;20053;-65
2023/12/09 10:56:16;;;;;;;10.80;3.22;;;8.00;99.90;;;;;;5034079;28;20075;-65
2023/12/09 10:58:45;;;;;;;11.75;3.55;;;7.80;99.90;;;;;;5033813;28;20095;-64
2023/12/09 11:01:13;;;;;;;10.50;3.25;;;7.90;99.90;;;;;;5033996;28;20067;-65
2023/12/09 11:03:40;;;;;;;8.40;2.97;;;7.90;99.90;;;;;;5034112;28;20068;-65
2023/12/09 11:06:08;;;;;;;11.13;3.45;;;7.90;99.90;;;;;;5033149;28;20144;-65
2023/12/09 11:08:37;;;;;;;9.70;3.13;;;7.90;99.90;;;;;;5051810;28;20041;-65
2023/12/09 11:11:05;;;;;;;8.90;3.10;;;7.90;99.90;;;;;;5034124;28;20059;-65
2023/12/09 11:13:35;;;;;;;8.77;2.92;;;7.70;99.90;;;;;;5033869;28;20465;-65
2023/12/09 11:16:21;;;;;;;7.47;2.75;;;7.90;99.90;;;;;;5033489;28;20071;-66
2023/12/09 11:18:56;;;;;;;8.68;2.63;;;7.80;99.90;;;;;;5017691;28;20057;-65
2023/12/09 11:21:28;;;;;;;9.68;2.95;;;7.90;99.90;;;;;;5051294;28;20052;-65
2023/12/09 11:23:55;;;;;;;;;;;7.90;99.90;;;;;;5034384;28;20503;-65
2023/12/09 11:26:30;;;;;;;8.48;2.80;;;8.00;99.90;;;;;;5033242;28;19924;-65
2023/12/09 11:29:01;;;;;;;9.13;2.85;;;7.90;99.90;;;;;;5033862;28;20053;-65
2023/12/09 11:31:46;;;;;;;9.75;3.22;;;8.00;99.90;;;;;;5033523;28;20064;-65
2023/12/09 11:34:20;;;;;;;7.20;2.25;;;8.10;99.90;;;;;;5033967;28;20059;-65
2023/12/09 11:36:49;;;;;;;7.65;3.20;;;7.90;99.90;;;;;;5050567;28;20056;-65
2023/12/09 11:39:18;;;;;;;7.57;2.42;;;8.00;99.90;;;;;;5033393;28;20135;-66
2023/12/09 11:41:45;;;;;;;8.88;3.10;;;8.10;99.90;;;;;;5049917;28;20055;-65
2023/12/09 11:44:13;;;;;;;9.32;2.90;;;8.00;99.90;;;;;;5033702;28;20045;-65
2023/12/09 11:46:40;;;;;;;9.32;2.83;;;8.00;99.90;;;;;;5049535;28;20475;-65
2023/12/09 11:49:08;;;;;;;10.40;3.63;;;8.10;99.90;;;;;;5050761;28;20071;-66
2023/12/09 11:51:38;;;;;;;7.57;3.33;;;8.10;99.90;;;;;;5032402;28;20051;-65
2023/12/09 11:54:07;;;;;;;10.43;3.50;;;8.10;99.90;;;;;;5048662;28;20056;-65
2023/12/09 11:56:34;;;;;;;13.73;3.85;;;8.10;99.90;;;;;;5050413;28;20057;-64
2023/12/09 11:59:00;;;;;;;7.07;3.25;;;8.00;99.90;;;;;;5032772;28;20072;-65
2023/12/09 12:01:29;;;;;;;9.48;3.80;;;7.90;99.90;;;;;;5050421;28;20049;-65
2023/12/09 12:03:55;;;;;;;9.43;3.15;;;8.00;99.90;;;;;;5033024;28;20045;-65
2023/12/09 12:06:22;;;;;;;8.82;3.35;;;8.00;99.90;;;;;;5049010;28;20453;-65
2023/12/09 12:08:51;;;;;;;11.77;3.72;;;8.10;99.90;;;;;;5034271;28;20044;-66
2023/12/09 12:11:22;;;;;;;9.23;3.38;;;8.00;99.90;;;;;;5050926;28;20117;-66
2023/12/09 12:13:49;;;;;;;7.75;3.10;;;8.10;99.90;;;;;;5074686;28;20060;-66
2023/12/09 12:16:15;;;;;;;8.55;2.67;;;7.90;99.90;;;;;;5069700;28;20049;-64
2023/12/09 12:18:42;;;;;;;9.93;2.60;;;7.90;99.90;;;;;;5053630;28;20354;-66
2023/12/09 12:21:09;;;;;;;7.60;2.72;;;8.00;99.90;;;;;;5054395;28;20052;-66
2023/12/09 12:23:35;;;;;;;9.77;3.67;;;8.00;99.90;;;;;;5054755;28;20049;-66
2023/12/09 12:26:02;;;;;;;7.50;3.33;;;8.00;99.90;;;;;;5054234;28;20144;-66
2023/12/09 12:28:30;;;;;;;8.27;3.08;;;8.20;99.90;;;;;;5037610;28;20045;-65
2023/12/09 12:31:01;;;;;;;7.75;3.25;;;8.20;99.90;;;;;;5037193;28;20056;-65
2023/12/09 12:33:31;;;;;;;7.47;3.28;;;8.10;99.90;;;;;;5036838;28;20381;-65
2023/12/09 12:35:58;;;;;;;7.10;2.63;;;8.30;99.90;;;;;;5035690;28;20064;-65
2023/12/09 12:38:26;;;;;;;9.48;3.25;;;8.10;99.90;;;;;;5036518;28;20061;-65
2023/12/09 12:40:54;;;;;;;6.88;3.30;;;8.30;99.90;;;;;;5069920;28;20033;-65
2023/12/09 12:43:21;;;;;;;9.20;3.53;;;8.30;99.90;;;;;;5054115;28;20372;-66
2023/12/09 12:45:52;;;;;;;8.98;3.42;;;8.30;99.90;;;;;;5053704;28;20480;-65